createdAt,value
2023-03-27T00:00:20.420Z,101306.69
2023-03-27T00:02:50.007Z,101307.56
2023-03-27T00:05:20.567Z,101310.28
2023-03-27T00:07:49.629Z,101313.75
2023-03-27T00:10:17.975Z,101320.66
2023-03-27T00:12:48.192Z,101325.03
2023-03-27T00:15:17.415Z,101323.38
2023-03-27T00:17:47.666Z,101332.94
2023-03-27T00:20:17.097Z,101328.72
2023-03-27T00:22:45.987Z,101333.13
2023-03-27T00:25:14.062Z,101336.63
2023-03-27T00:27:44.993Z,101339.28
2023-03-27T00:30:15.709Z,101349.69
2023-03-27T00:32:43.906Z,101348.91
2023-03-27T00:35:12.361Z,101355.78
2023-03-27T00:37:40.776Z,101350.66
2023-03-27T00:40:17.689Z,101360.19
2023-03-27T00:42:46.776Z,101359.25
2023-03-27T00:45:21.787Z,101351.50
2023-03-27T00:47:54.920Z,101360.03
2023-03-27T00:50:29.637Z,101359.09
2023-03-27T00:53:01.806Z,101363.44
2023-03-27T00:55:34.641Z,101360.94
2023-03-27T00:58:08.088Z,101362.63
2023-03-27T01:00:38.004Z,101377.38
2023-03-27T01:03:09.480Z,101372.25
2023-03-27T01:05:38.154Z,101379.22
2023-03-27T01:08:07.699Z,101372.28
2023-03-27T01:10:48.262Z,101374.88
2023-03-27T01:13:32.497Z,101375.78
2023-03-27T01:16:07.176Z,101387.06
2023-03-27T01:18:48.068Z,101379.28
2023-03-27T01:21:44.640Z,101382.69
2023-03-27T01:24:58.324Z,101381.91
2023-03-27T01:28:02.830Z,101390.56
2023-03-27T01:30:35.715Z,101400.94
2023-03-27T01:33:48.648Z,101396.69
2023-03-27T01:36:34.834Z,101400.06
2023-03-27T01:39:24.162Z,101403.53
2023-03-27T01:41:57.665Z,101412.19
2023-03-27T01:44:36.506Z,101419.13
2023-03-27T01:47:21.308Z,101430.41
2023-03-27T01:49:55.293Z,101436.53
2023-03-27T01:52:28.396Z,101427.06
2023-03-27T01:55:03.540Z,101431.38
2023-03-27T01:57:38.636Z,101437.44
2023-03-27T02:00:22.636Z,101439.22
2023-03-27T02:02:55.055Z,101439.25
2023-03-27T02:05:32.038Z,101437.47
2023-03-27T02:08:08.674Z,101443.56
2023-03-27T02:10:45.805Z,101448.72
2023-03-27T02:13:19.839Z,101446.94
2023-03-27T02:15:50.465Z,101453.03
2023-03-27T02:18:23.714Z,101459.91
2023-03-27T02:20:51.865Z,101461.63
2023-03-27T02:23:22.896Z,101462.38
2023-03-27T02:25:54.396Z,101464.94
2023-03-27T02:28:39.366Z,101473.59
2023-03-27T02:31:33.085Z,101471.84
2023-03-27T02:34:25.657Z,101464.03
2023-03-27T02:37:02.205Z,101467.44
2023-03-27T02:39:42.168Z,101478.66
2023-03-27T02:42:18.160Z,101480.41
2023-03-27T02:44:51.786Z,101483.88
2023-03-27T02:47:26.967Z,101480.44
2023-03-27T02:50:01.893Z,101485.59
2023-03-27T02:52:35.525Z,101487.34
2023-03-27T02:55:09.276Z,101486.47
2023-03-27T02:57:40.218Z,101484.75
2023-03-27T03:00:18.431Z,101494.31
2023-03-27T03:02:49.344Z,101496.88
2023-03-27T03:05:22.326Z,101493.47
2023-03-27T03:07:51.184Z,101503.81
2023-03-27T03:10:19.292Z,101505.56
2023-03-27T03:12:48.719Z,101514.19
2023-03-27T03:15:18.621Z,101511.59
2023-03-27T03:17:46.870Z,101520.31
2023-03-27T03:20:16.554Z,101521.13
2023-03-27T03:22:44.575Z,101528.13
2023-03-27T03:25:15.277Z,101524.66
2023-03-27T03:27:44.258Z,101528.19
2023-03-27T03:30:16.985Z,101530.00
2023-03-27T03:32:47.422Z,101535.22
2023-03-27T03:35:15.830Z,101541.28
2023-03-27T03:37:50.757Z,101550.75
2023-03-27T03:40:20.847Z,101557.66
2023-03-27T03:42:50.504Z,101547.28
2023-03-27T03:45:20.581Z,101557.59
2023-03-27T03:47:49.004Z,101555.81
2023-03-27T03:50:17.477Z,101563.56
2023-03-27T03:52:46.281Z,101567.03
2023-03-27T03:55:16.043Z,101576.47
2023-03-27T03:57:47.104Z,101574.69
2023-03-27T04:00:17.097Z,101585.91
2023-03-27T04:02:47.066Z,101606.56
2023-03-27T04:05:15.539Z,101614.34
2023-03-27T04:07:43.870Z,101620.44
2023-03-27T04:10:13.499Z,101621.34
2023-03-27T04:12:42.038Z,101630.88
2023-03-27T04:15:10.763Z,101640.53
2023-03-27T04:17:38.874Z,101655.31
2023-03-27T04:20:09.245Z,101654.63
2023-03-27T04:22:38.209Z,101652.09
2023-03-27T04:25:08.275Z,101641.72
2023-03-27T04:27:36.837Z,101643.34
2023-03-27T04:30:08.669Z,101639.84
2023-03-27T04:32:36.840Z,101640.66
2023-03-27T04:35:05.199Z,101640.59
2023-03-27T04:37:34.635Z,101647.50
2023-03-27T04:40:05.638Z,101652.72
2023-03-27T04:42:33.820Z,101655.34
2023-03-27T04:45:02.694Z,101651.97
2023-03-27T04:47:31.977Z,101655.38
2023-03-27T04:50:00.213Z,101648.44
2023-03-27T04:52:29.787Z,101655.34
2023-03-27T04:55:00.353Z,101654.50
2023-03-27T04:57:30.926Z,101661.53
2023-03-27T04:59:59.259Z,101653.81
2023-03-27T05:02:27.966Z,101664.88
2023-03-27T05:04:58.630Z,101659.88
2023-03-27T05:07:28.445Z,101671.09
2023-03-27T05:10:02.125Z,101670.09
2023-03-27T05:12:30.304Z,101671.84
2023-03-27T05:14:59.387Z,101676.22
2023-03-27T05:17:27.461Z,101680.53
2023-03-27T05:19:56.861Z,101686.59
2023-03-27T05:22:24.999Z,101684.06
2023-03-27T05:24:53.261Z,101684.94
2023-03-27T05:27:22.735Z,101687.56
2023-03-27T05:29:50.739Z,101691.91
2023-03-27T05:32:18.830Z,101695.31
2023-03-27T05:34:50.775Z,101691.78
2023-03-27T05:37:19.246Z,101703.06
2023-03-27T05:39:47.278Z,101707.41
2023-03-27T05:42:16.351Z,101716.09
2023-03-27T05:44:45.972Z,101711.00
2023-03-27T05:47:14.575Z,101715.28
2023-03-27T05:49:42.627Z,101710.06
2023-03-27T05:52:10.650Z,101720.38
2023-03-27T05:54:38.737Z,101717.78
2023-03-27T05:57:09.098Z,101719.53
2023-03-27T05:59:37.239Z,101724.72
2023-03-27T06:02:06.786Z,101729.00
2023-03-27T06:04:37.568Z,101737.59
2023-03-27T06:07:05.779Z,101731.59
2023-03-27T06:09:35.298Z,101734.19
2023-03-27T06:12:03.663Z,101731.59
2023-03-27T06:14:31.658Z,101740.16
2023-03-27T06:16:59.713Z,101749.63
2023-03-27T06:19:29.268Z,101751.38
2023-03-27T06:21:57.334Z,101749.63
2023-03-27T06:24:25.332Z,101743.59
2023-03-27T06:26:53.689Z,101741.75
2023-03-27T06:29:21.934Z,101756.38
2023-03-27T06:31:49.978Z,101757.25
2023-03-27T06:34:18.009Z,101763.19
2023-03-27T06:36:50.893Z,101763.94
2023-03-27T06:39:19.234Z,101769.06
2023-03-27T06:41:47.336Z,101769.94
2023-03-27T06:44:15.445Z,101781.91
2023-03-27T06:46:45.822Z,101776.78
2023-03-27T06:49:14.135Z,101775.88
2023-03-27T06:51:42.158Z,101776.69
2023-03-27T06:54:12.437Z,101774.16
2023-03-27T06:56:40.457Z,101775.88
2023-03-27T06:59:09.047Z,101778.41
2023-03-27T07:01:37.342Z,101780.00
2023-03-27T07:04:08.621Z,101777.25
2023-03-27T07:06:38.600Z,101778.06
2023-03-27T07:09:08.420Z,101789.22
2023-03-27T07:11:37.854Z,101786.63
2023-03-27T07:14:08.913Z,101792.66
2023-03-27T07:16:37.069Z,101802.09
2023-03-27T07:19:05.374Z,101809.75
2023-03-27T07:21:33.478Z,101811.38
2023-03-27T07:24:01.613Z,101810.34
2023-03-27T07:26:32.032Z,101815.44
2023-03-27T07:29:03.084Z,101813.59
2023-03-27T07:31:50.986Z,101809.06
2023-03-27T07:34:19.745Z,101824.38
2023-03-27T07:36:50.642Z,101823.38
2023-03-27T07:39:18.738Z,101827.38
2023-03-27T07:41:46.789Z,101832.38
2023-03-27T07:44:16.758Z,101830.34
2023-03-27T07:46:45.874Z,101836.94
2023-03-27T07:49:14.202Z,101841.84
2023-03-27T07:51:42.528Z,101844.16
2023-03-27T07:54:13.390Z,101856.00
2023-03-27T07:56:41.947Z,101844.41
2023-03-27T07:59:11.673Z,101857.88
2023-03-27T08:01:43.521Z,101860.13
2023-03-27T08:04:11.982Z,101859.88
2023-03-27T08:06:43.804Z,101864.22
2023-03-27T08:09:12.276Z,101858.44
2023-03-27T08:11:41.389Z,101870.75
2023-03-27T08:14:10.027Z,101866.56
2023-03-27T08:16:38.809Z,101869.09
2023-03-27T08:19:08.285Z,101877.59
2023-03-27T08:21:36.346Z,101874.06
2023-03-27T08:24:05.140Z,101881.09
2023-03-27T08:26:33.472Z,101876.78
2023-03-27T08:29:01.688Z,101882.72
2023-03-27T08:31:31.214Z,101876.38
2023-03-27T08:33:59.344Z,101880.94
2023-03-27T08:36:29.296Z,101885.75
2023-03-27T08:38:57.998Z,101886.94
2023-03-27T08:41:30.732Z,101893.13
2023-03-27T08:44:04.163Z,101885.53
2023-03-27T08:46:38.612Z,101884.34
2023-03-27T08:49:12.934Z,101883.44
2023-03-27T08:51:47.184Z,101885.50
2023-03-27T08:54:21.569Z,101903.44
2023-03-27T08:56:50.460Z,101909.78
2023-03-27T08:59:21.031Z,101917.56
2023-03-27T09:01:55.814Z,101915.00
2023-03-27T09:04:37.410Z,101926.66
2023-03-27T09:07:11.523Z,101925.06
2023-03-27T09:09:55.871Z,101943.28
2023-03-27T09:12:44.911Z,101947.06
2023-03-27T09:15:16.436Z,101952.69
2023-03-27T09:17:50.075Z,101953.00
2023-03-27T09:20:21.676Z,101961.47
2023-03-27T09:22:55.412Z,101954.34
2023-03-27T09:25:28.390Z,101965.66
2023-03-27T09:28:00.514Z,101943.59
2023-03-27T09:30:30.177Z,101953.50
2023-03-27T09:33:03.589Z,101963.69
2023-03-27T09:35:32.262Z,101966.56
2023-03-27T09:38:06.924Z,101948.56
2023-03-27T09:40:45.169Z,101949.09
2023-03-27T09:43:18.873Z,101950.75
2023-03-27T09:45:49.166Z,101944.63
2023-03-27T09:48:26.459Z,101937.69
2023-03-27T09:50:54.623Z,101937.00
2023-03-27T09:53:25.304Z,101930.09
2023-03-27T09:55:56.856Z,101929.84
2023-03-27T09:58:32.580Z,101924.09
2023-03-27T10:01:16.870Z,101934.50
2023-03-27T10:03:50.186Z,101948.75
2023-03-27T10:06:26.621Z,101969.06
2023-03-27T10:08:56.972Z,101981.13
2023-03-27T10:11:28.530Z,101987.66
2023-03-27T10:13:58.046Z,101995.16
2023-03-27T10:16:27.938Z,101994.88
2023-03-27T10:18:59.548Z,101986.66
2023-03-27T10:21:30.857Z,101978.47
2023-03-27T10:24:06.590Z,101979.31
2023-03-27T10:26:38.913Z,101976.81
2023-03-27T10:29:21.644Z,101981.97
2023-03-27T10:31:52.620Z,101988.19
2023-03-27T10:34:33.631Z,101982.38
2023-03-27T10:37:19.580Z,101990.38
2023-03-27T10:39:49.356Z,101993.81
2023-03-27T10:42:19.131Z,101985.09
2023-03-27T10:44:49.124Z,101985.66
2023-03-27T10:47:20.983Z,101980.94
2023-03-27T10:49:56.687Z,101979.69
2023-03-27T10:52:29.677Z,101989.78
2023-03-27T10:55:17.265Z,101988.44
2023-03-27T10:57:53.528Z,101973.25
2023-03-27T11:00:33.316Z,101974.00
2023-03-27T11:03:09.911Z,101978.63
2023-03-27T11:05:41.648Z,101976.22
2023-03-27T11:08:16.454Z,101976.78
2023-03-27T11:10:47.303Z,101971.59
2023-03-27T11:13:23.134Z,101975.09
2023-03-27T11:15:55.833Z,101979.31
2023-03-27T11:18:26.909Z,101987.63
2023-03-27T11:20:59.667Z,101982.97
2023-03-27T11:23:32.315Z,101988.81
2023-03-27T11:26:06.084Z,101994.56
2023-03-27T11:28:42.971Z,101987.53
2023-03-27T11:31:17.744Z,101988.56
2023-03-27T11:33:51.402Z,101993.94
2023-03-27T11:36:44.884Z,102001.63
2023-03-27T11:39:20.808Z,101994.28
2023-03-27T11:41:53.399Z,102008.44
2023-03-27T11:44:22.561Z,102033.34
2023-03-27T11:47:05.657Z,102032.72
2023-03-27T11:49:48.692Z,102023.41
2023-03-27T11:52:27.838Z,102039.25
2023-03-27T11:55:11.990Z,102029.81
2023-03-27T11:57:57.618Z,102035.63
2023-03-27T12:00:32.896Z,102030.97
2023-03-27T12:03:33.746Z,102034.31
2023-03-27T12:06:10.123Z,102030.41
2023-03-27T12:08:53.867Z,102028.25
2023-03-27T12:11:25.651Z,102028.31
2023-03-27T12:14:18.958Z,102030.72
2023-03-27T12:17:20.099Z,102029.94
2023-03-27T12:20:01.673Z,102030.78
2023-03-27T12:22:40.023Z,102030.91
2023-03-27T12:25:45.319Z,102032.31
2023-03-27T12:28:23.764Z,102028.75
2023-03-27T12:31:04.270Z,102030.41
2023-03-27T12:33:53.277Z,102040.59
2023-03-27T12:36:24.410Z,102039.91
2023-03-27T12:38:54.527Z,102041.41
2023-03-27T12:41:25.005Z,102036.66
2023-03-27T12:43:58.774Z,102018.63
2023-03-27T12:46:37.442Z,102029.09
2023-03-27T12:49:48.076Z,102034.50
2023-03-27T12:52:18.821Z,102030.41
2023-03-27T12:55:06.915Z,102040.81
2023-03-27T12:57:44.665Z,102028.22
2023-03-27T13:00:22.428Z,102059.22
2023-03-27T13:03:32.775Z,102062.00
2023-03-27T13:06:22.958Z,102075.19
2023-03-27T13:09:10.493Z,102069.72
2023-03-27T13:11:50.491Z,102071.91
2023-03-27T13:14:42.305Z,102074.09
2023-03-27T13:17:24.568Z,102076.19
2023-03-27T13:19:59.592Z,102071.63
2023-03-27T13:22:54.507Z,102084.28
2023-03-27T13:25:32.643Z,102080.53
2023-03-27T13:28:26.011Z,102064.91
2023-03-27T13:30:56.469Z,102066.94
2023-03-27T13:33:28.115Z,102073.38
2023-03-27T13:36:12.152Z,102070.69
2023-03-27T13:39:13.856Z,102064.91
2023-03-27T13:42:02.273Z,102066.16
2023-03-27T13:44:42.094Z,102068.28
2023-03-27T13:47:31.530Z,102078.75
2023-03-27T13:50:21.070Z,102081.75
2023-03-27T13:53:13.386Z,102083.50
2023-03-27T13:56:07.628Z,102091.28
2023-03-27T13:58:58.505Z,102083.16
2023-03-27T14:01:42.228Z,102087.06
2023-03-27T14:04:44.102Z,102091.53
2023-03-27T14:07:41.766Z,102087.16
2023-03-27T14:10:23.527Z,102095.81
2023-03-27T14:13:09.111Z,102118.44
2023-03-27T14:15:52.877Z,102096.28
2023-03-27T14:18:55.883Z,102095.28
2023-03-27T14:21:37.929Z,102101.44
2023-03-27T14:24:16.884Z,102100.13
2023-03-27T14:26:46.471Z,102098.22
2023-03-27T14:29:16.931Z,102105.25
2023-03-27T14:31:45.165Z,102106.81
2023-03-27T14:34:22.452Z,102104.41
2023-03-27T14:36:52.166Z,102105.72
2023-03-27T14:39:22.711Z,102102.81
2023-03-27T14:41:55.705Z,102113.66
2023-03-27T14:44:27.085Z,102116.91
2023-03-27T14:47:00.866Z,102111.31
2023-03-27T14:49:35.854Z,102118.84
2023-03-27T14:52:07.797Z,102113.44
2023-03-27T14:54:48.494Z,102112.28
2023-03-27T14:57:27.396Z,102102.75
2023-03-27T15:00:00.500Z,102108.72
2023-03-27T15:02:32.753Z,102106.41
2023-03-27T15:05:09.678Z,102115.66
2023-03-27T15:07:38.355Z,102128.59
2023-03-27T15:10:22.414Z,102129.28
2023-03-27T15:12:50.911Z,102129.97
2023-03-27T15:15:35.000Z,102129.63
2023-03-27T15:18:05.505Z,102139.59
2023-03-27T15:20:37.050Z,102132.81
2023-03-27T15:23:12.790Z,102138.81
2023-03-27T15:25:43.818Z,102143.13
2023-03-27T15:28:19.435Z,102156.28
2023-03-27T15:30:52.644Z,102145.56
2023-03-27T15:33:25.823Z,102155.78
2023-03-27T15:35:56.686Z,102166.78
2023-03-27T15:38:28.958Z,102165.16
2023-03-27T15:41:03.513Z,102167.44
2023-03-27T15:43:32.187Z,102162.09
2023-03-27T15:46:16.047Z,102176.53
2023-03-27T15:48:46.058Z,102177.47
2023-03-27T15:51:28.118Z,102172.44
2023-03-27T15:53:58.995Z,102177.84
2023-03-27T15:56:30.293Z,102175.06
2023-03-27T15:59:00.386Z,102169.34
2023-03-27T16:01:36.406Z,102174.03
2023-03-27T16:04:08.867Z,102179.94
2023-03-27T16:06:40.902Z,102187.94
2023-03-27T16:09:23.376Z,102182.13
2023-03-27T16:11:54.171Z,102178.94
2023-03-27T16:14:29.114Z,102184.31
2023-03-27T16:17:20.778Z,102181.84
2023-03-27T16:19:55.650Z,102189.09
2023-03-27T16:22:25.237Z,102200.34
2023-03-27T16:24:53.936Z,102195.09
2023-03-27T16:27:24.359Z,102197.81
2023-03-27T16:29:53.001Z,102195.16
2023-03-27T16:32:23.837Z,102194.22
2023-03-27T16:34:52.605Z,102206.94
2023-03-27T16:37:22.420Z,102198.38
2023-03-27T16:39:51.045Z,102205.09
2023-03-27T16:42:25.229Z,102215.88
2023-03-27T16:44:54.395Z,102224.84
2023-03-27T16:47:24.876Z,102226.41
2023-03-27T16:50:07.886Z,102229.31
2023-03-27T16:52:39.286Z,102221.66
2023-03-27T16:55:08.553Z,102235.66
2023-03-27T16:57:36.662Z,102232.47
2023-03-27T17:00:05.730Z,102247.81
2023-03-27T17:02:36.558Z,102242.56
2023-03-27T17:05:05.099Z,102240.00
2023-03-27T17:07:33.313Z,102242.66
2023-03-27T17:10:02.248Z,102242.81
2023-03-27T17:12:30.733Z,102250.06
2023-03-27T17:14:58.966Z,102247.38
2023-03-27T17:17:30.564Z,102245.97
2023-03-27T17:20:00.726Z,102253.09
2023-03-27T17:22:30.166Z,102259.97
2023-03-27T17:25:01.232Z,102254.16
2023-03-27T17:27:29.394Z,102258.28
2023-03-27T17:29:57.636Z,102265.28
2023-03-27T17:32:26.848Z,102269.94
2023-03-27T17:34:56.077Z,102270.75
2023-03-27T17:37:25.990Z,102272.59
2023-03-27T17:39:54.064Z,102271.00
2023-03-27T17:42:22.454Z,102275.31
2023-03-27T17:44:53.366Z,102279.69
2023-03-27T17:47:21.769Z,102291.97
2023-03-27T17:49:49.873Z,102304.34
2023-03-27T17:52:18.932Z,102304.50
2023-03-27T17:54:48.363Z,102313.63
2023-03-27T17:57:16.856Z,102321.59
2023-03-27T17:59:46.436Z,102314.09
2023-03-27T18:02:18.037Z,102322.94
2023-03-27T18:04:47.920Z,102317.59
2023-03-27T18:07:15.930Z,102321.25
2023-03-27T18:09:44.041Z,102324.69
2023-03-27T18:12:13.695Z,102329.91
2023-03-27T18:14:43.172Z,102329.06
2023-03-27T18:17:11.470Z,102335.22
2023-03-27T18:19:39.503Z,102335.28
2023-03-27T18:22:07.636Z,102337.16
2023-03-27T18:24:35.732Z,102338.78
2023-03-27T18:27:03.839Z,102337.88
2023-03-27T18:29:33.997Z,102343.22
2023-03-27T18:32:02.172Z,102348.41
2023-03-27T18:34:30.159Z,102349.25
2023-03-27T18:36:58.210Z,102345.09
2023-03-27T18:39:26.355Z,102350.34
2023-03-27T18:41:55.037Z,102354.75
2023-03-27T18:44:23.077Z,102359.13
2023-03-27T18:46:55.283Z,102362.72
2023-03-27T18:49:25.493Z,102358.31
2023-03-27T18:51:54.087Z,102362.66
2023-03-27T18:54:22.248Z,102357.56
2023-03-27T18:56:52.046Z,102363.66
2023-03-27T18:59:20.820Z,102364.53
2023-03-27T19:01:48.979Z,102360.16
2023-03-27T19:04:19.055Z,102374.22
2023-03-27T19:06:47.441Z,102369.78
2023-03-27T19:09:16.311Z,102370.81
2023-03-27T19:11:44.888Z,102367.47
2023-03-27T19:14:12.986Z,102370.03
2023-03-27T19:16:43.277Z,102364.03
2023-03-27T19:19:11.388Z,102362.38
2023-03-27T19:21:40.793Z,102376.25
2023-03-27T19:24:08.891Z,102373.56
2023-03-27T19:26:37.536Z,102376.25
2023-03-27T19:29:06.608Z,102372.81
2023-03-27T19:31:35.061Z,102377.13
2023-03-27T19:34:03.266Z,102383.22
2023-03-27T19:36:32.746Z,102382.41
2023-03-27T19:39:02.157Z,102379.00
2023-03-27T19:41:30.360Z,102388.56
2023-03-27T19:44:00.820Z,102399.88
2023-03-27T19:46:29.540Z,102398.16
2023-03-27T19:48:57.797Z,102402.56
2023-03-27T19:51:25.843Z,102407.78
2023-03-27T19:53:55.537Z,102401.75
2023-03-27T19:56:25.010Z,102400.06
2023-03-27T19:58:53.209Z,102395.75
2023-03-27T20:01:21.536Z,102388.84
2023-03-27T20:03:49.806Z,102392.31
2023-03-27T20:06:19.624Z,102392.28
2023-03-27T20:08:47.748Z,102393.09
2023-03-27T20:11:15.890Z,102387.81
2023-03-27T20:13:55.446Z,102387.88
2023-03-27T20:16:27.487Z,102381.09
2023-03-27T20:19:03.882Z,102386.25
2023-03-27T20:21:34.629Z,102388.91
2023-03-27T20:24:03.272Z,102388.13
2023-03-27T20:26:39.167Z,102398.47
2023-03-27T20:29:12.577Z,102398.50
2023-03-27T20:31:41.419Z,102394.13
2023-03-27T20:34:10.540Z,102389.03
2023-03-27T20:36:39.313Z,102391.63
2023-03-27T20:39:08.968Z,102391.69
2023-03-27T20:41:39.158Z,102390.84
2023-03-27T20:44:15.597Z,102396.06
2023-03-27T20:46:47.248Z,102399.56
2023-03-27T20:49:37.424Z,102395.25
2023-03-27T20:52:09.248Z,102401.31
2023-03-27T20:54:37.458Z,102405.69
2023-03-27T20:57:06.055Z,102406.53
2023-03-27T20:59:35.562Z,102404.84
2023-03-27T21:02:04.000Z,102407.47
2023-03-27T21:04:32.530Z,102409.19
2023-03-27T21:07:00.810Z,102420.41
2023-03-27T21:09:29.165Z,102416.09
2023-03-27T21:11:57.381Z,102415.22
2023-03-27T21:14:25.688Z,102411.81
2023-03-27T21:16:55.431Z,102410.97
2023-03-27T21:19:23.992Z,102416.16
2023-03-27T21:21:52.108Z,102417.88
2023-03-27T21:24:20.571Z,102420.47
2023-03-27T21:26:48.733Z,102416.16
2023-03-27T21:29:17.107Z,102430.00
2023-03-27T21:31:45.524Z,102422.22
2023-03-27T21:34:17.373Z,102428.28
2023-03-27T21:36:45.731Z,102420.50
2023-03-27T21:39:13.880Z,102425.69
2023-03-27T21:41:41.920Z,102427.44
2023-03-27T21:44:10.000Z,102431.78
2023-03-27T21:46:38.126Z,102428.31
2023-03-27T21:49:06.359Z,102428.31
2023-03-27T21:51:36.058Z,102430.06
2023-03-27T21:54:04.159Z,102427.47
2023-03-27T21:56:32.536Z,102437.84
2023-03-27T21:59:03.262Z,102429.22
2023-03-27T22:01:31.393Z,102440.47
2023-03-27T22:04:02.217Z,102437.88
2023-03-27T22:06:31.710Z,102446.50
2023-03-27T22:09:01.331Z,102450.81
2023-03-27T22:11:29.532Z,102438.75
2023-03-27T22:13:59.193Z,102443.91
2023-03-27T22:16:27.526Z,102451.69
2023-03-27T22:18:55.761Z,102445.66
2023-03-27T22:21:25.881Z,102449.97
2023-03-27T22:23:55.125Z,102451.69
2023-03-27T22:26:27.210Z,102443.06
2023-03-27T22:28:56.501Z,102454.31
2023-03-27T22:31:25.766Z,102459.50
2023-03-27T22:33:54.043Z,102462.09
2023-03-27T22:36:22.719Z,102459.50
2023-03-27T22:38:50.904Z,102468.13
2023-03-27T22:41:19.228Z,102464.66
2023-03-27T22:43:49.906Z,102469.88
2023-03-27T22:46:20.116Z,102472.44
2023-03-27T22:48:48.643Z,102471.59
2023-03-27T22:51:16.748Z,102472.47
2023-03-27T22:53:44.850Z,102469.00
2023-03-27T22:56:13.084Z,102475.91
2023-03-27T22:58:41.253Z,102480.25
2023-03-27T23:01:11.042Z,102485.44
2023-03-27T23:03:39.565Z,102489.72
2023-03-27T23:06:08.534Z,102484.56
2023-03-27T23:08:36.702Z,102475.91
2023-03-27T23:11:06.606Z,102487.13
2023-03-27T23:13:36.506Z,102492.31
2023-03-27T23:16:08.003Z,102494.91
2023-03-27T23:18:38.063Z,102489.72
2023-03-27T23:21:08.171Z,102499.22
2023-03-27T23:23:37.680Z,102495.78
2023-03-27T23:26:09.221Z,102500.09
2023-03-27T23:28:39.209Z,102495.78
2023-03-27T23:31:09.106Z,102500.06
2023-03-27T23:33:43.040Z,102496.63
2023-03-27T23:36:13.192Z,102495.75
2023-03-27T23:38:42.525Z,102493.13
2023-03-27T23:41:16.096Z,102500.06
2023-03-27T23:43:44.640Z,102499.19
2023-03-27T23:46:13.765Z,102494.88
2023-03-27T23:48:44.866Z,102495.72
2023-03-27T23:51:14.788Z,102496.59
2023-03-27T23:53:43.747Z,102497.44
2023-03-27T23:56:14.913Z,102500.06
2023-03-27T23:58:43.352Z,102503.50
